Latest Weather Observations for Hopetoun Airport

IDV60801

Issued at 5:02 am EDT Friday 19 December 2014 (issued every 30 minutes, with the page automatically refreshed every 10 minutes)

About weather observations | Map of weather stations | Latest weather observations for VIC | Other Formats
Station Details ID: 077010 Name: HOPETOUN AIRPORT Lat: -35.72 Lon: 142.36 Height: 77.3 m
Data from the previous 72 hours. | See also: Recent months at Hopetoun Airport
Date/Time
EDT
Temp
°C
App
Temp
°C
Dew
Point
Rel
Hum
%
Delta-T
°C
Wind Press
QNH
hPa
Press
MSL
hPa
Rain
since 9 am
mm
Dir
 
Spd
km/h
Gust
km/h
Spd
kts
Gust
kts
19/05:00am 8.9 5.5 3.9 71 2.2 SSW 11 15 6 8 1016.4 1016.1 0.0
19/04:30am 8.8 5.7 3.4 69 2.3 SSW 9 11 5 6 1016.0 1015.8 0.0
19/04:00am 9.8 6.7 3.8 66 2.6 SSW 9 11 5 6 1015.7 1015.5 0.0
19/03:30am 10.7 6.9 4.0 63 3.0 SSW 13 17 7 9 1015.7 1015.5 0.0
19/03:00am 11.4 6.5 4.2 61 3.2 SW 19 24 10 13 1015.8 1015.6 0.0
19/02:30am 12.0 7.5 4.2 59 3.5 SW 17 24 9 13 1015.7 1015.5 0.0
19/02:00am 11.6 7.7 3.4 57 3.6 SW 13 17 7 9 1015.5 1015.3 0.0
19/01:30am 12.3 7.6 3.0 53 4.1 SSW 17 19 9 10 1015.4 1015.2 0.0
19/01:00am 12.1 8.7 2.0 50 4.3 SSW 9 13 5 7 1015.3 1015.1 0.0
19/12:30am 12.7 8.6 2.3 49 4.5 SW 13 17 7 9 1015.4 1015.2 0.0
19/12:00am 13.0 8.9 2.3 48 4.7 SW 13 15 7 8 1015.2 1015.0 0.0
 
Date/Time
EDT
Temp
°C
App
Temp
°C
Dew
Point
Rel
Hum
%
Delta-T
°C
Wind Press
QNH
hPa
Press
MSL
hPa
Rain
since 9 am
mm
Dir
 
Spd
km/h
Gust
km/h
Spd
kts
Gust
kts
18/11:30pm 14.4 10.0 2.9 46 5.2 WSW 15 17 8 9 1015.0 1014.8 0.0
18/11:00pm 15.3 10.7 3.5 45 5.4 WSW 17 22 9 12 1014.8 1014.6 0.0
18/10:30pm 16.1 10.9 3.5 43 5.8 WSW 20 30 11 16 1014.5 1014.3 0.0
18/10:00pm 16.9 10.9 3.2 40 6.3 WSW 24 33 13 18 1014.3 1014.1 0.0
18/09:30pm 17.8 11.3 2.5 36 7.0 SW 26 33 14 18 1013.7 1013.5 0.0
18/09:00pm 18.9 12.2 3.5 36 7.3 SW 28 39 15 21 1013.2 1013.0 0.0
18/08:30pm 20.0 12.2 2.8 32 8.1 WSW 33 46 18 25 1012.9 1012.7 0.0
18/08:00pm 20.8 12.7 3.5 32 8.3 WSW 35 46 19 25 1012.3 1012.1 0.0
18/07:30pm 21.2 12.8 3.9 32 8.4 WSW 37 48 20 26 1011.8 1011.5 0.0
18/07:00pm 22.2 14.8 5.2 33 8.5 WSW 33 43 18 23 1011.1 1010.8 0.0
18/06:30pm 21.9 14.1 6.6 37 7.8 SW 37 46 20 25 1010.8 1010.5 0.0
18/06:00pm 22.9 14.1 7.1 36 8.2 SW 43 54 23 29 1010.5 1010.2 0.0
18/05:30pm 23.4 15.2 8.3 38 8.0 SW 41 54 22 29 1010.2 1009.9 0.0
18/05:19pm 22.4 14.4 8.9 42 7.2 SW 41 59 22 32 1010.2 1009.9 0.0
18/05:00pm 23.2 15.0 9.6 42 7.4 SW 43 56 23 30 1010.1 1009.8 0.0
18/04:48pm 22.7 13.7 8.8 41 7.4 SW 46 61 25 33 1010.1 1009.8 0.0
18/04:30pm 23.8 14.0 7.0 34 8.8 WSW 48 63 26 34 1009.5 1009.2 0.0
18/04:00pm 24.3 15.2 7.0 33 9.1 WSW 44 59 24 32 1009.3 1009.0 0.0
18/03:47pm 24.8 15.9 7.0 32 9.3 WSW 43 63 23 34 1009.0 1008.7 0.0
18/03:30pm 25.0 15.9 6.7 31 9.6 WSW 44 59 24 32 1008.8 1008.5 0.0
18/03:08pm 25.6 16.1 6.8 30 9.9 SW 46 65 25 35 1008.7 1008.4 0.0
18/03:00pm 24.8 15.6 5.6 29 9.8 WSW 43 59 23 32 1008.5 1008.2 0.0
18/02:30pm 24.9 16.3 4.6 27 10.2 W 39 57 21 31 1008.2 1007.9 0.0
18/02:00pm 26.1 18.6 6.2 28 10.4 W 35 54 19 29 1008.5 1008.2 0.0
18/01:54pm 24.8 17.2 5.6 29 9.8 W 35 54 19 29 1008.6 1008.3 0.0
18/01:30pm 25.5 18.8 5.7 28 10.2 W 30 46 16 25 1008.7 1008.4 0.0
18/01:28pm 24.5 18.2 5.8 30 9.6 WSW 28 46 15 25 1008.9 1008.6 0.0
18/01:00pm 24.3 17.1 5.1 29 9.7 W 32 50 17 27 1009.1 1008.8 0.0
18/12:33pm 23.3 16.1 5.7 32 8.9 W 33 46 18 25 1009.3 1009.0 0.0
18/12:30pm 23.5 16.6 6.3 33 8.8 WSW 32 46 17 25 1009.2 1008.9 0.0
18/12:04pm 21.9 14.5 4.9 33 8.4 WSW 33 52 18 28 1009.3 1009.0 0.0
18/12:00pm 23.3 16.1 5.7 32 8.9 WSW 33 48 18 26 1009.4 1009.1 0.0
18/11:30am 22.2 15.6 6.0 35 8.2 WSW 30 43 16 23 1009.4 1009.1 0.0
18/11:00am 21.4 15.1 5.7 36 7.9 W 28 43 15 23 1009.1 1008.8 0.0
18/10:30am 21.4 15.5 5.7 36 7.9 W 26 39 14 21 1009.3 1009.0 0.0
18/10:00am 19.7 14.9 5.7 40 6.9 W 20 32 11 17 1009.2 1008.9 0.0
18/09:30am 19.2 14.7 6.0 42 6.6 WSW 19 28 10 15 1009.5 1009.2 0.0
18/09:00am 18.6 14.1 6.1 44 6.2 WSW 19 28 10 15 1009.5 1009.2 0.0
18/08:30am 17.4 14.3 5.7 46 5.7 WSW 11 17 6 9 1009.2 1008.9 0.0
18/08:00am 15.7 13.3 4.4 47 5.3 SSW 6 7 3 4 1008.7 1008.4 0.0
18/07:30am 14.1 11.4 3.8 50 4.7 SW 7 9 4 5 1008.3 1008.0 0.0
18/07:00am 11.7 9.3 1.9 51 4.2 SSW 4 6 2 3 1007.9 1007.6 0.0
18/06:30am 9.8 6.6 0.7 53 3.7 SW 7 9 4 5 1007.8 1007.5 0.0
18/06:00am 10.0 7.0 0.9 53 3.8 SW 6 7 3 4 1007.5 1007.2 0.0
18/05:30am 10.2 7.2 0.8 52 3.9 SW 6 7 3 4 1007.2 1006.9 0.0
18/05:00am 10.3 7.2 0.1 49 4.2 SW 6 7 3 4 1006.6 1006.3 0.0
18/04:30am 10.8 6.8 0.5 49 4.2 SW 11 11 6 6 1006.8 1006.5 0.0
18/04:00am 11.4 7.8 0.5 47 4.5 WSW 9 11 5 6 1006.6 1006.3 0.0
18/03:30am 11.9 8.3 0.4 45 4.8 WSW 9 11 5 6 1006.6 1006.3 0.0
18/03:00am 11.9 8.5 -0.3 43 5.0 SSW 7 9 4 5 1006.4 1006.1 0.0
18/02:30am 12.7 9.5 0.8 44 5.0 SW 7 9 4 5 1006.5 1006.2 0.0
18/02:00am 11.4 7.8 -2.0 39 5.3 WSW 7 9 4 5 1007.0 1006.7 0.0
18/01:30am 12.7 9.4 -0.2 41 5.3 WSW 7 9 4 5 1007.2 1006.9 0.0
18/01:00am 12.8 9.3 -1.1 38 5.6 WSW 7 7 4 4 1007.2 1006.9 0.0
18/12:30am 14.9 11.6 0.0 36 6.3 SW 7 9 4 5 1007.2 1006.9 0.0
18/12:00am 16.2 12.9 0.3 34 6.9 SSW 7 9 4 5 1007.0 1006.7 0.0
 
Date/Time
EDT
Temp
°C
App
Temp
°C
Dew
Point
Rel
Hum
%
Delta-T
°C
Wind Press
QNH
hPa
Press
MSL
hPa
Rain
since 9 am
mm
Dir
 
Spd
km/h
Gust
km/h
Spd
kts
Gust
kts
17/11:30pm 16.6 12.9 -0.1 32 7.2 SSW 9 11 5 6 1006.9 1006.6 0.0
17/11:00pm 19.8 16.8 1.7 30 8.3 S 7 9 4 5 1006.6 1006.3 0.0
17/10:30pm 20.2 16.8 1.6 29 8.5 S 9 11 5 6 1006.7 1006.4 0.0
17/10:00pm 19.3 15.7 0.4 28 8.4 SSW 9 11 5 6 1006.9 1006.6 0.0
17/09:30pm 20.6 17.0 0.4 26 9.1 SSW 9 11 5 6 1006.7 1006.4 0.0
17/09:00pm 21.8 17.8 0.4 24 9.7 SSW 11 13 6 7 1007.0 1006.7 0.0
17/08:30pm 23.2 19.1 -0.3 21 10.6 WSW 11 15 6 8 1006.8 1006.5 0.0
17/08:00pm 24.6 20.5 -0.5 19 11.5 SW 11 15 6 8 1006.6 1006.3 0.0
17/07:30pm 25.0 20.8 -0.9 18 11.8 W 11 19 6 10 1006.4 1006.1 0.0
17/07:00pm 24.9 19.3 -0.3 19 11.6 WSW 19 26 10 14 1006.3 1006.0 0.0
17/06:30pm 25.7 21.2 -0.4 18 12.0 W 13 24 7 13 1006.2 1005.9 0.0
17/06:00pm 25.1 20.5 -0.9 18 11.8 WSW 13 24 7 13 1006.3 1006.0 0.0
17/05:30pm 25.3 20.2 0.8 20 11.5 WSW 17 28 9 15 1006.4 1006.1 0.0
17/05:00pm 24.9 21.4 1.1 21 11.2 WSW 9 17 5 9 1006.6 1006.3 0.0
17/04:30pm 24.1 20.2 1.1 22 10.8 SW 11 20 6 11 1006.8 1006.5 0.0
17/04:00pm 24.6 21.2 2.1 23 10.8 SW 9 19 5 10 1007.1 1006.8 0.0
17/03:30pm 22.8 19.9 1.2 24 10.0 ESE 6 11 3 6 1007.5 1007.2 0.0
17/03:00pm 22.6 18.4 1.6 25 9.8 WSW 13 24 7 13 1007.9 1007.6 0.0
17/02:30pm 22.5 18.8 2.1 26 9.6 W 11 35 6 19 1008.3 1008.0 0.0
17/02:00pm 22.4 18.6 2.0 26 9.6 WSW 11 20 6 11 1008.8 1008.5 0.0
17/01:30pm 21.1 16.5 1.4 27 9.1 SW 15 26 8 14 1009.2 1008.9 0.0
17/01:00pm 20.1 16.9 1.0 28 8.7 SW 7 15 4 8 1009.4 1009.1 0.0
17/12:30pm 20.2 17.4 2.1 30 8.4 WSW 6 17 3 9 1009.8 1009.5 0.0
17/12:00pm 18.9 14.7 1.4 31 7.9 WSW 13 24 7 13 1010.0 1009.7 0.0
17/11:30am 18.6 14.8 1.6 32 7.7 S 11 24 6 13 1010.1 1009.8 0.0
17/11:00am 17.7 14.5 3.2 38 6.7 SSW 9 20 5 11 1010.2 1009.9 0.0
17/10:30am 17.8 14.4 4.0 40 6.5 S 11 20 6 11 1010.6 1010.3 0.0
17/10:00am 16.7 13.7 4.1 43 5.9 SSW 9 15 5 8 1010.9 1010.6 0.0
17/09:30am 15.9 12.6 4.6 47 5.3 SSW 11 24 6 13 1011.0 1010.7 0.0
17/09:00am 15.0 11.7 4.7 50 4.8 SSW 11 15 6 8 1011.3 1011.0 0.0
17/08:30am 14.4 11.0 6.0 57 4.0 SSW 13 19 7 10 1011.1 1010.8 0.0
17/08:00am 13.3 10.2 5.5 59 3.7 SW 11 15 6 8 1010.9 1010.6 0.0
17/07:30am 11.7 8.8 4.9 63 3.1 SSW 9 13 5 7 1010.3 1010.0 0.0
17/07:00am 9.7 7.2 3.7 66 2.6 SSW 6 7 3 4 1009.8 1009.5 0.0
17/06:30am 8.0 5.4 3.1 71 2.1 SSW 6 6 3 3 1009.5 1009.2 0.0
17/06:00am 7.3 4.6 2.4 71 2.0 SW 6 7 3 4 1009.2 1008.9 0.0
17/05:30am 6.8 4.3 1.7 70 2.1 SW 4 6 2 3 1008.9 1008.6 0.0
17/05:00am 8.0 5.0 2.3 67 2.4 SW 7 7 4 4 1008.4 1008.1 0.0
17/04:30am 8.0 5.5 1.8 65 2.6 WSW 4 6 2 3 1008.2 1007.9 0.0
17/04:00am 9.3 6.1 2.9 64 2.8 SW 9 11 5 6 1008.1 1007.8 0.0
17/03:30am 9.5 6.2 2.6 62 2.9 SW 9 11 5 6 1008.2 1007.9 0.0
17/03:00am 9.4 6.1 2.3 61 3.0 SW 9 9 5 5 1008.2 1007.9 0.0
17/02:30am 10.0 6.7 2.4 59 3.2 SW 9 13 5 7 1008.1 1007.8 0.0
17/02:00am 11.3 7.7 3.1 57 3.6 SW 11 13 6 7 1008.3 1008.0 0.0
17/01:30am 12.1 8.1 3.1 54 4.0 WSW 13 15 7 8 1008.3 1008.0 0.0
17/01:00am 13.0 9.1 3.4 52 4.3 SW 13 19 7 10 1008.1 1007.8 0.0
17/12:30am 13.7 9.1 3.5 50 4.6 SW 17 22 9 12 1008.1 1007.8 0.0
17/12:00am 14.2 9.6 3.7 49 4.8 SW 17 22 9 12 1007.9 1007.6 0.0
 
Date/Time
EDT
Temp
°C
App
Temp
°C
Dew
Point
Rel
Hum
%
Delta-T
°C
Wind Press
QNH
hPa
Press
MSL
hPa
Rain
since 9 am
mm
Dir
 
Spd
km/h
Gust
km/h
Spd
kts
Gust
kts
16/11:30pm 14.9 9.7 3.7 47 5.1 SW 20 26 11 14 1007.6 1007.3 0.0
16/11:00pm 15.6 9.7 3.7 45 5.5 WSW 24 30 13 16 1007.4 1007.1 0.0
16/10:30pm 16.2 9.1 3.3 42 5.9 SW 30 37 16 20 1007.3 1007.0 0.0
16/10:00pm 16.8 9.4 1.7 36 6.8 SW 30 39 16 21 1006.8 1006.5 0.0
16/09:30pm 17.3 9.9 1.7 35 7.0 WSW 30 43 16 23 1006.1 1005.8 0.0
16/09:00pm 18.1 10.2 2.0 34 7.3 SW 33 44 18 24 1005.7 1005.4 0.0
16/08:30pm 19.0 9.6 2.4 33 7.7 SW 41 54 22 29 1005.1 1004.8 0.0
16/08:00pm 20.1 10.3 3.3 33 8.0 SW 44 57 24 31 1004.3 1004.0 0.0
16/07:37pm 20.9 11.0 2.7 30 8.6 SW 44 63 24 34 1003.5 1003.2 0.0
16/07:30pm 21.7 11.6 3.9 31 8.6 WSW 46 59 25 32 1003.5 1003.2 0.0
16/07:00pm 22.4 12.8 4.5 31 8.9 WSW 44 59 24 32 1002.9 1002.6 0.0
16/06:43pm 22.7 12.6 5.6 33 8.6 WSW 48 67 26 36 1002.2 1002.0 0.0
16/06:30pm 23.1 12.6 5.5 32 8.9 WSW 50 65 27 35 1002.2 1002.0 0.0
16/06:05pm 24.1 13.4 6.4 32 9.1 WSW 52 72 28 39 1001.4 1001.2 0.0
16/06:00pm 24.1 12.6 6.4 32 9.2 WSW 56 72 30 39 1001.1 1000.9 0.0
16/05:30pm 24.6 14.2 9.3 38 8.3 WSW 54 70 29 38 1000.6 1000.3 0.0
16/05:14pm 25.5 14.8 9.7 37 8.7 WSW 56 74 30 40 1000.6 1000.3 0.0
16/05:00pm 24.6 14.4 10.1 40 8.1 WSW 54 70 29 38 1000.5 1000.2 0.0
16/04:38pm 24.3 13.5 9.8 40 8.0 WSW 57 78 31 42 1000.5 1000.2 0.0
16/04:30pm 23.8 12.6 9.8 41 7.7 SW 59 76 32 41 1000.5 1000.2 0.0
16/04:00pm 28.7 19.1 9.4 30 10.8 WSW 50 69 27 37 999.3 999.0 0.0
16/03:30pm 28.6 19.0 6.1 24 11.9 W 46 69 25 37 998.8 998.5 0.0
16/03:00pm 29.8 19.8 4.4 20 13.2 WNW 46 70 25 38 998.6 998.3 0.0
16/02:33pm 30.4 20.2 3.4 18 13.7 WNW 46 70 25 38 998.5 998.2 0.0
16/02:30pm 30.2 20.0 3.3 18 13.7 WNW 46 63 25 34 998.4 998.1 0.0
16/02:03pm 29.9 19.5 2.2 17 13.8 WNW 46 67 25 36 998.5 998.2 0.0
16/02:00pm 30.8 20.8 2.1 16 14.4 WNW 44 59 24 32 998.5 998.2 0.0
16/01:30pm 31.1 21.9 1.4 15 14.7 WNW 39 57 21 31 998.8 998.5 0.0
16/01:10pm 29.9 20.4 -0.5 14 14.4 WNW 39 57 21 31 998.7 998.4 0.0
16/01:00pm 29.9 20.8 -0.5 14 14.5 WNW 37 54 20 29 998.5 998.2 0.0
16/12:46pm 29.1 20.6 -2.1 13 14.3 WNW 33 56 18 30 998.4 998.1 0.0
16/12:30pm 28.5 20.9 0.3 16 13.4 WNW 30 44 16 24 998.7 998.4 0.0
16/12:00pm 28.1 20.5 0.8 17 13.2 WNW 30 43 16 23 999.1 998.8 0.0
16/11:30am 27.6 19.6 0.4 17 12.9 WNW 32 43 17 23 999.5 999.2 0.0
16/11:00am 27.0 19.8 0.7 18 12.6 W 28 35 15 19 999.5 999.2 0.0
16/10:30am 25.3 18.6 3.9 25 10.6 WNW 28 39 15 21 1000.1 999.8 0.0
16/10:00am 24.5 18.6 3.8 26 10.3 WNW 24 32 13 17 1000.4 1000.1 0.0
16/09:30am 22.3 17.6 6.1 35 8.2 WNW 20 28 11 15 1000.4 1000.1 0.0
16/09:00am 20.9 17.2 7.9 43 6.8 WNW 17 22 9 12 1000.3 1000.0 0.0
16/08:30am 19.1 16.4 9.0 52 5.3 NW 13 17 7 9 1000.0 999.7 0.0
16/08:00am 16.4 14.5 9.1 62 3.8 WNW 9 13 5 7 999.4 999.1 0.0
16/07:30am 15.0 12.5 9.6 70 2.8 W 13 20 7 11 1000.2 999.9 0.0
16/07:00am 13.0 10.3 8.9 76 2.1 W 13 19 7 10 1000.2 999.9 0.0
16/06:30am 12.0 9.2 8.5 79 1.7 W 13 20 7 11 1000.5 1000.2 0.0
16/06:00am 12.1 8.5 8.4 78 1.8 W 17 20 9 11 999.6 999.3 0.0
16/05:30am 12.4 9.2 8.3 76 2.0 W 15 19 8 10 999.2 998.9 0.0

Other Formats:

Comma delimited format used in spreadsheet applications
http://www.bom.gov.au/fwo/IDV60801/IDV60801.94838.axf

JavaScript Object Notation format (JSON) in row-major order
http://www.bom.gov.au/fwo/IDV60801/IDV60801.94838.json